Aviation Digital Data Service (ADDS)

Output produced by METARs form (2023 UTC 23 January 2019)
found at http://www.aviationweather.gov/metar/data/
 
METAR text: SEST 232000Z 24004KT 8000 -RA SCT008 BKN016 OVC070 25/24 Q1006 RMK A2972
Conditions at: SEST (SAN CRISTOBAL IS, EC) observed 2000 UTC 23 January 2019
Temperature: 25.0°C (77°F)
Dewpoint: 24.0°C (75°F) [RH = 94%]
Pressure (altimeter): 29.70 inches Hg (1006.0 mb)
Winds: from the WSW (240 degrees) at 5 MPH (4 knots; 2.1 m/s)
Visibility: 5 miles ( 8 km)
Ceiling: 1600 feet AGL
Clouds: scattered clouds at 800 feet AGL
broken clouds at 1600 feet AGL
overcast cloud deck at 7000 feet AGL
Weather: -RA  (light rain)

METAR text: SEST 231900Z 16007KT 6000 -RADZ SCT008 BKN016 OVC070 25/25 Q1008 RMK A2975
Conditions at: SEST (SAN CRISTOBAL IS, EC) observed 1900 UTC 23 January 2019
Temperature: 25.0°C (77°F)
Dewpoint: 25.0°C (77°F) [RH = 100%]
Pressure (altimeter): 29.76 inches Hg (1008.0 mb)
Winds: from the SSE (160 degrees) at 8 MPH (7 knots; 3.6 m/s)
Visibility: 4 miles ( 6 km)
Ceiling: 1600 feet AGL
Clouds: scattered clouds at 800 feet AGL
broken clouds at 1600 feet AGL
overcast cloud deck at 7000 feet AGL
Weather: -RA -DZ  (light rain, light drizzle)

METAR text: SEST 231800Z 16007KT 5000 -RADZ SCT008 BKN016 OVC070 25/24 Q1008 RMK A2977
Conditions at: SEST (SAN CRISTOBAL IS, EC) observed 1800 UTC 23 January 2019
Temperature: 25.0°C (77°F)
Dewpoint: 24.0°C (75°F) [RH = 94%]
Pressure (altimeter): 29.76 inches Hg (1008.0 mb)
Winds: from the SSE (160 degrees) at 8 MPH (7 knots; 3.6 m/s)
Visibility: 3 miles ( 5 km)
Ceiling: 1600 feet AGL
Clouds: scattered clouds at 800 feet AGL
broken clouds at 1600 feet AGL
overcast cloud deck at 7000 feet AGL
Weather: -RA -DZ  (light rain, light drizzle)

METAR text: SEST 231700Z 03006KT 8000 -RADZ SCT008 BKN016 OVC070 25/25 Q1008 RMK A2979 RERA
Conditions at: SEST (SAN CRISTOBAL IS, EC) observed 1700 UTC 23 January 2019
Temperature: 25.0°C (77°F)
Dewpoint: 25.0°C (77°F) [RH = 100%]
Pressure (altimeter): 29.76 inches Hg (1008.0 mb)
Winds: from the NNE (30 degrees) at 7 MPH (6 knots; 3.1 m/s)
Visibility: 5 miles ( 8 km)
Ceiling: 1600 feet AGL
Clouds: scattered clouds at 800 feet AGL
broken clouds at 1600 feet AGL
overcast cloud deck at 7000 feet AGL
Weather: -RA -DZ  (light rain, light drizzle)

METAR text: SEST 231624Z 14008KT 8000 -RADZ SCT008 BKN016 OVC070
Conditions at: SEST (SAN CRISTOBAL IS, EC) observed 1624 UTC 23 January 2019
Temperature: missing
Dewpoint: missing
Pressure (altimeter): missing
Winds: from the SE (140 degrees) at 9 MPH (8 knots; 4.1 m/s)
Visibility: 5 miles ( 8 km)
Ceiling: 1600 feet AGL
Clouds: scattered clouds at 800 feet AGL
broken clouds at 1600 feet AGL
overcast cloud deck at 7000 feet AGL
Weather: -RA -DZ  (light rain, light drizzle)

METAR text: SEST 231607Z 14008KT 4000 +RADZ SCT006 BKN016 OVC070
Conditions at: SEST (SAN CRISTOBAL IS, EC) observed 1607 UTC 23 January 2019
Temperature: missing
Dewpoint: missing
Pressure (altimeter): missing
Winds: from the SE (140 degrees) at 9 MPH (8 knots; 4.1 m/s)
Visibility: 2.49 miles (4.01 km)
Ceiling: 1600 feet AGL
Clouds: scattered clouds at 600 feet AGL
broken clouds at 1600 feet AGL
overcast cloud deck at 7000 feet AGL
Weather: +RA +DZ  (heavy rain, heavy drizzle)

METAR text: SEST 231600Z 14008KT 9999 4000E -RADZ SCT008 BKN016 OVC070 26/24 Q1009 RMK A2980
Conditions at: SEST (SAN CRISTOBAL IS, EC) observed 1600 UTC 23 January 2019
Temperature: 26.0°C (79°F)
Dewpoint: 24.0°C (75°F) [RH = 89%]
Pressure (altimeter): 29.79 inches Hg (1009.0 mb)
Winds: from the SE (140 degrees) at 9 MPH (8 knots; 4.1 m/s)
Visibility: 6 or more miles (10+ km)
Ceiling: 1600 feet AGL
Clouds: scattered clouds at 800 feet AGL
broken clouds at 1600 feet AGL
overcast cloud deck at 7000 feet AGL
Weather: -RA DZ  (light rain, moderate drizzle)

METAR text: SEST 231500Z 16009KT 9999 SCT016 BKN070 26/24 Q1008 RMK A2979
Conditions at: SEST (SAN CRISTOBAL IS, EC) observed 1500 UTC 23 January 2019
Temperature: 26.0°C (79°F)
Dewpoint: 24.0°C (75°F) [RH = 89%]
Pressure (altimeter): 29.76 inches Hg (1008.0 mb)
Winds: from the SSE (160 degrees) at 10 MPH (9 knots; 4.6 m/s)
Visibility: 6 or more miles (10+ km)
Ceiling: 7000 feet AGL
Clouds: scattered clouds at 1600 feet AGL
broken clouds at 7000 feet AGL
Weather: no significant weather observed at this time

METAR text: SEST 231400Z 16009KT 9999 SCT016 BKN070 26/24 Q1008 RMK A2978
Conditions at: SEST (SAN CRISTOBAL IS, EC) observed 1400 UTC 23 January 2019
Temperature: 26.0°C (79°F)
Dewpoint: 24.0°C (75°F) [RH = 89%]
Pressure (altimeter): 29.76 inches Hg (1008.0 mb)
Winds: from the SSE (160 degrees) at 10 MPH (9 knots; 4.6 m/s)
Visibility: 6 or more miles (10+ km)
Ceiling: 7000 feet AGL
Clouds: scattered clouds at 1600 feet AGL
broken clouds at 7000 feet AGL
Weather: no significant weather observed at this time

METAR text: SEST 231300Z 17008KT 9999 FBL RA SCT016 BKN070 25/24 Q1007 RMK A2975
Conditions at: SEST (SAN CRISTOBAL IS, EC) observed 1300 UTC 23 January 2019
Temperature: 25.0°C (77°F)
Dewpoint: 24.0°C (75°F) [RH = 94%]
Pressure (altimeter): 29.73 inches Hg (1007.0 mb)
Winds: from the S (170 degrees) at 9 MPH (8 knots; 4.1 m/s)
Visibility: 6 or more miles (10+ km)
Ceiling: 7000 feet AGL
Clouds: scattered clouds at 1600 feet AGL
broken clouds at 7000 feet AGL
Weather: RA  (moderate rain)

METAR text: SEST 231200Z 17010KT 9999 FBL RA SCT006 OVC023 25/24 Q1007 RMK A2974
Conditions at: SEST (SAN CRISTOBAL IS, EC) observed 1200 UTC 23 January 2019
Temperature: 25.0°C (77°F)
Dewpoint: 24.0°C (75°F) [RH = 94%]
Pressure (altimeter): 29.73 inches Hg (1007.0 mb)
Winds: from the S (170 degrees) at 12 MPH (10 knots; 5.1 m/s)
Visibility: 6 or more miles (10+ km)
Ceiling: 2300 feet AGL
Clouds: scattered clouds at 600 feet AGL
overcast cloud deck at 2300 feet AGL
Weather: RA  (moderate rain)

METAR text: SEST 230000Z 15008KT 9999 SCT016 BKN040 26/24 Q1006 RMK A2971
Conditions at: SEST (SAN CRISTOBAL IS, EC) observed 0000 UTC 23 January 2019
Temperature: 26.0°C (79°F)
Dewpoint: 24.0°C (75°F) [RH = 89%]
Pressure (altimeter): 29.70 inches Hg (1006.0 mb)
Winds: from the SSE (150 degrees) at 9 MPH (8 knots; 4.1 m/s)
Visibility: 6 or more miles (10+ km)
Ceiling: 4000 feet AGL
Clouds: scattered clouds at 1600 feet AGL
broken clouds at 4000 feet AGL
Weather: no significant weather observed at this time

METAR text: SEST 222300Z 15009KT 9999 -RA SCT016 BKN040 26/24 Q1005 RMK A2969
Conditions at: SEST (SAN CRISTOBAL IS, EC) observed 2300 UTC 22 January 2019
Temperature: 26.0°C (79°F)
Dewpoint: 24.0°C (75°F) [RH = 89%]
Pressure (altimeter): 29.68 inches Hg (1005.0 mb)
Winds: from the SSE (150 degrees) at 10 MPH (9 knots; 4.6 m/s)
Visibility: 6 or more miles (10+ km)
Ceiling: 4000 feet AGL
Clouds: scattered clouds at 1600 feet AGL
broken clouds at 4000 feet AGL
Weather: -RA  (light rain)

METAR text: SEST 222235Z 16009KT 9999 -RA SCT016 BKN040
Conditions at: SEST (SAN CRISTOBAL IS, EC) observed 2235 UTC 22 January 2019
Temperature: missing
Dewpoint: missing
Pressure (altimeter): missing
Winds: from the SSE (160 degrees) at 10 MPH (9 knots; 4.6 m/s)
Visibility: 6 or more miles (10+ km)
Ceiling: 4000 feet AGL
Clouds: scattered clouds at 1600 feet AGL
broken clouds at 4000 feet AGL
Weather: -RA  (light rain)

METAR text: SEST 222200Z 16010KT 9999 SCT016 BKN040 26/24 Q1005 RMK A2969
Conditions at: SEST (SAN CRISTOBAL IS, EC) observed 2200 UTC 22 January 2019
Temperature: 26.0°C (79°F)
Dewpoint: 24.0°C (75°F) [RH = 89%]
Pressure (altimeter): 29.68 inches Hg (1005.0 mb)
Winds: from the SSE (160 degrees) at 12 MPH (10 knots; 5.1 m/s)
Visibility: 6 or more miles (10+ km)
Ceiling: 4000 feet AGL
Clouds: scattered clouds at 1600 feet AGL
broken clouds at 4000 feet AGL
Weather: no significant weather observed at this time

METAR text: SEST 222100Z 18008KT 9999 -RA SCT016 BKN050 26/24 Q1005 RMK A2970
Conditions at: SEST (SAN CRISTOBAL IS, EC) observed 2100 UTC 22 January 2019
Temperature: 26.0°C (79°F)
Dewpoint: 24.0°C (75°F) [RH = 89%]
Pressure (altimeter): 29.68 inches Hg (1005.0 mb)
Winds: from the S (180 degrees) at 9 MPH (8 knots; 4.1 m/s)
Visibility: 6 or more miles (10+ km)
Ceiling: 5000 feet AGL
Clouds: scattered clouds at 1600 feet AGL
broken clouds at 5000 feet AGL
Weather: -RA  (light rain)

METAR text: SEST 222000Z 19009KT 9999 -RA SCT016 BKN050 26/24 Q1006 RMK A2973
Conditions at: SEST (SAN CRISTOBAL IS, EC) observed 2000 UTC 22 January 2019
Temperature: 26.0°C (79°F)
Dewpoint: 24.0°C (75°F) [RH = 89%]
Pressure (altimeter): 29.70 inches Hg (1006.0 mb)
Winds: from the S (190 degrees) at 10 MPH (9 knots; 4.6 m/s)
Visibility: 6 or more miles (10+ km)
Ceiling: 5000 feet AGL
Clouds: scattered clouds at 1600 feet AGL
broken clouds at 5000 feet AGL
Weather: -RA  (light rain)

METAR text: SEST 221900Z 17010KT 9999 -RA SCT016 BKN050 27/24 Q1007 RMK A2975
Conditions at: SEST (SAN CRISTOBAL IS, EC) observed 1900 UTC 22 January 2019
Temperature: 27.0°C (81°F)
Dewpoint: 24.0°C (75°F) [RH = 84%]
Pressure (altimeter): 29.73 inches Hg (1007.0 mb)
Winds: from the S (170 degrees) at 12 MPH (10 knots; 5.1 m/s)
Visibility: 6 or more miles (10+ km)
Ceiling: 5000 feet AGL
Clouds: scattered clouds at 1600 feet AGL
broken clouds at 5000 feet AGL
Weather: -RA  (light rain)

METAR text: SEST 221800Z 17011KT 9999 -RA SCT016 BKN050 27/24 Q1008 RMK A2978
Conditions at: SEST (SAN CRISTOBAL IS, EC) observed 1800 UTC 22 January 2019
Temperature: 27.0°C (81°F)
Dewpoint: 24.0°C (75°F) [RH = 84%]
Pressure (altimeter): 29.76 inches Hg (1008.0 mb)
Winds: from the S (170 degrees) at 13 MPH (11 knots; 5.7 m/s)
Visibility: 6 or more miles (10+ km)
Ceiling: 5000 feet AGL
Clouds: scattered clouds at 1600 feet AGL
broken clouds at 5000 feet AGL
Weather: -RA  (light rain)

METAR text: SEST 221700Z 18012KT 9999 SCT016 BKN050 28/24 Q1008 RMK A2979
Conditions at: SEST (SAN CRISTOBAL IS, EC) observed 1700 UTC 22 January 2019
Temperature: 28.0°C (82°F)
Dewpoint: 24.0°C (75°F) [RH = 79%]
Pressure (altimeter): 29.76 inches Hg (1008.0 mb)
Winds: from the S (180 degrees) at 14 MPH (12 knots; 6.2 m/s)
Visibility: 6 or more miles (10+ km)
Ceiling: 5000 feet AGL
Clouds: scattered clouds at 1600 feet AGL
broken clouds at 5000 feet AGL
Weather: no significant weather observed at this time

METAR text: SEST 221600Z 16009KT 9999 SCT016 OVC050 26/24 Q1009 RMK A2981
Conditions at: SEST (SAN CRISTOBAL IS, EC) observed 1600 UTC 22 January 2019
Temperature: 26.0°C (79°F)
Dewpoint: 24.0°C (75°F) [RH = 89%]
Pressure (altimeter): 29.79 inches Hg (1009.0 mb)
Winds: from the SSE (160 degrees) at 10 MPH (9 knots; 4.6 m/s)
Visibility: 6 or more miles (10+ km)
Ceiling: 5000 feet AGL
Clouds: scattered clouds at 1600 feet AGL
overcast cloud deck at 5000 feet AGL
Weather: no significant weather observed at this time

METAR text: SEST 221500Z 16007KT 9999 SCT013 OVC040 26/24 Q1009 RMK A2980
Conditions at: SEST (SAN CRISTOBAL IS, EC) observed 1500 UTC 22 January 2019
Temperature: 26.0°C (79°F)
Dewpoint: 24.0°C (75°F) [RH = 89%]
Pressure (altimeter): 29.79 inches Hg (1009.0 mb)
Winds: from the SSE (160 degrees) at 8 MPH (7 knots; 3.6 m/s)
Visibility: 6 or more miles (10+ km)
Ceiling: 4000 feet AGL
Clouds: scattered clouds at 1300 feet AGL
overcast cloud deck at 4000 feet AGL
Weather: no significant weather observed at this time

METAR text: SEST 221400Z 14008KT 9999 -RA BKN013 OVC033 25/24 Q1009 RMK A2980
Conditions at: SEST (SAN CRISTOBAL IS, EC) observed 1400 UTC 22 January 2019
Temperature: 25.0°C (77°F)
Dewpoint: 24.0°C (75°F) [RH = 94%]
Pressure (altimeter): 29.79 inches Hg (1009.0 mb)
Winds: from the SE (140 degrees) at 9 MPH (8 knots; 4.1 m/s)
Visibility: 6 or more miles (10+ km)
Ceiling: 1300 feet AGL
Clouds: broken clouds at 1300 feet AGL
overcast cloud deck at 3300 feet AGL
Weather: -RA  (light rain)

METAR text: SEST 221300Z 15010KT 9999 BKN016 OVC033 25/23 Q1008 RMK A2978
Conditions at: SEST (SAN CRISTOBAL IS, EC) observed 1300 UTC 22 January 2019
Temperature: 25.0°C (77°F)
Dewpoint: 23.0°C (73°F) [RH = 89%]
Pressure (altimeter): 29.76 inches Hg (1008.0 mb)
Winds: from the SSE (150 degrees) at 12 MPH (10 knots; 5.1 m/s)
Visibility: 6 or more miles (10+ km)
Ceiling: 1600 feet AGL
Clouds: broken clouds at 1600 feet AGL
overcast cloud deck at 3300 feet AGL
Weather: no significant weather observed at this time

METAR text: SEST 221200Z 16009KT 9999 BKN013 OVC026 24/23 Q1007 RMK A2975
Conditions at: SEST (SAN CRISTOBAL IS, EC) observed 1200 UTC 22 January 2019
Temperature: 24.0°C (75°F)
Dewpoint: 23.0°C (73°F) [RH = 94%]
Pressure (altimeter): 29.73 inches Hg (1007.0 mb)
Winds: from the SSE (160 degrees) at 10 MPH (9 knots; 4.6 m/s)
Visibility: 6 or more miles (10+ km)
Ceiling: 1300 feet AGL
Clouds: broken clouds at 1300 feet AGL
overcast cloud deck at 2600 feet AGL
Weather: no significant weather observed at this time